sensor_id;sensor_type;location;lat;lon;timestamp;temperature;humidity
25128;DHT22;13107;51.304;6.866;2023-05-10T00:00:57;13.00;99.90
25128;DHT22;13107;51.304;6.866;2023-05-10T00:04:59;13.00;99.90
25128;DHT22;13107;51.304;6.866;2023-05-10T00:09:00;13.00;99.90
25128;DHT22;13107;51.304;6.866;2023-05-10T00:13:03;13.00;99.90
25128;DHT22;13107;51.304;6.866;2023-05-10T00:17:04;13.00;99.90
25128;DHT22;13107;51.304;6.866;2023-05-10T00:21:06;13.00;99.90
25128;DHT22;13107;51.304;6.866;2023-05-10T00:25:08;13.00;99.90
25128;DHT22;13107;51.304;6.866;2023-05-10T00:29:10;13.00;99.90
25128;DHT22;13107;51.304;6.866;2023-05-10T00:33:12;13.00;99.90
25128;DHT22;13107;51.304;6.866;2023-05-10T00:37:14;13.00;99.90
25128;DHT22;13107;51.304;6.866;2023-05-10T00:41:15;13.00;99.90
25128;DHT22;13107;51.304;6.866;2023-05-10T00:45:17;13.00;99.90
25128;DHT22;13107;51.304;6.866;2023-05-10T00:49:19;12.90;99.90
25128;DHT22;13107;51.304;6.866;2023-05-10T00:53:22;12.90;99.90
25128;DHT22;13107;51.304;6.866;2023-05-10T00:57:24;12.90;99.90
25128;DHT22;13107;51.304;6.866;2023-05-10T01:01:26;12.90;99.90
25128;DHT22;13107;51.304;6.866;2023-05-10T01:05:27;12.80;99.90
25128;DHT22;13107;51.304;6.866;2023-05-10T01:09:29;12.80;99.90
25128;DHT22;13107;51.304;6.866;2023-05-10T01:13:37;12.70;99.90
25128;DHT22;13107;51.304;6.866;2023-05-10T01:17:40;12.80;99.90
25128;DHT22;13107;51.304;6.866;2023-05-10T01:26:34;12.80;99.90
25128;DHT22;13107;51.304;6.866;2023-05-10T01:35:26;12.80;99.90
25128;DHT22;13107;51.304;6.866;2023-05-10T01:44:11;12.70;99.90
25128;DHT22;13107;51.304;6.866;2023-05-10T01:48:18;12.60;99.90
25128;DHT22;13107;51.304;6.866;2023-05-10T01:52:32;12.60;99.90
25128;DHT22;13107;51.304;6.866;2023-05-10T01:56:35;12.60;99.90
25128;DHT22;13107;51.304;6.866;2023-05-10T02:00:42;12.60;99.90
25128;DHT22;13107;51.304;6.866;2023-05-10T02:04:45;12.70;99.90
25128;DHT22;13107;51.304;6.866;2023-05-10T02:08:49;12.60;99.90
25128;DHT22;13107;51.304;6.866;2023-05-10T02:12:53;12.60;99.90
25128;DHT22;13107;51.304;6.866;2023-05-10T02:16:56;12.60;99.90
25128;DHT22;13107;51.304;6.866;2023-05-10T02:20:59;12.60;99.90
25128;DHT22;13107;51.304;6.866;2023-05-10T02:25:03;12.60;99.90
25128;DHT22;13107;51.304;6.866;2023-05-10T02:29:06;12.50;99.90
25128;DHT22;13107;51.304;6.866;2023-05-10T02:33:09;12.60;99.90
25128;DHT22;13107;51.304;6.866;2023-05-10T02:37:14;12.60;99.90
25128;DHT22;13107;51.304;6.866;2023-05-10T02:41:18;12.60;99.90
25128;DHT22;13107;51.304;6.866;2023-05-10T02:45:23;12.60;99.90
25128;DHT22;13107;51.304;6.866;2023-05-10T02:49:26;12.50;99.90
25128;DHT22;13107;51.304;6.866;2023-05-10T02:53:32;12.50;99.90
25128;DHT22;13107;51.304;6.866;2023-05-10T02:57:34;12.60;99.90
25128;DHT22;13107;51.304;6.866;2023-05-10T03:01:40;12.60;99.90
25128;DHT22;13107;51.304;6.866;2023-05-10T03:05:41;12.60;99.90
25128;DHT22;13107;51.304;6.866;2023-05-10T03:09:43;12.60;99.90
25128;DHT22;13107;51.304;6.866;2023-05-10T03:18:45;12.60;99.90
25128;DHT22;13107;51.304;6.866;2023-05-10T03:22:53;12.60;99.90
25128;DHT22;13107;51.304;6.866;2023-05-10T03:26:59;12.60;99.90
25128;DHT22;13107;51.304;6.866;2023-05-10T03:31:04;12.60;99.90
25128;DHT22;13107;51.304;6.866;2023-05-10T03:35:11;12.50;99.90
25128;DHT22;13107;51.304;6.866;2023-05-10T03:39:13;12.50;99.90
25128;DHT22;13107;51.304;6.866;2023-05-10T03:43:15;12.60;99.90
25128;DHT22;13107;51.304;6.866;2023-05-10T03:47:17;12.60;99.90
25128;DHT22;13107;51.304;6.866;2023-05-10T03:51:18;12.60;99.90
25128;DHT22;13107;51.304;6.866;2023-05-10T03:55:20;12.60;99.90
25128;DHT22;13107;51.304;6.866;2023-05-10T03:59:22;12.60;99.90
25128;DHT22;13107;51.304;6.866;2023-05-10T04:03:23;12.70;99.90
25128;DHT22;13107;51.304;6.866;2023-05-10T04:07:27;12.70;99.90
25128;DHT22;13107;51.304;6.866;2023-05-10T04:11:29;12.80;99.90
25128;DHT22;13107;51.304;6.866;2023-05-10T04:15:30;12.70;99.90
25128;DHT22;13107;51.304;6.866;2023-05-10T04:19:32;12.80;99.90
25128;DHT22;13107;51.304;6.866;2023-05-10T04:23:34;12.80;99.90
25128;DHT22;13107;51.304;6.866;2023-05-10T04:27:36;12.80;99.90
25128;DHT22;13107;51.304;6.866;2023-05-10T04:31:37;12.80;99.90
25128;DHT22;13107;51.304;6.866;2023-05-10T04:35:39;12.80;99.90
25128;DHT22;13107;51.304;6.866;2023-05-10T04:39:41;12.90;99.90
25128;DHT22;13107;51.304;6.866;2023-05-10T04:43:43;12.90;99.90
25128;DHT22;13107;51.304;6.866;2023-05-10T04:47:45;13.00;99.90
25128;DHT22;13107;51.304;6.866;2023-05-10T04:51:46;13.00;99.90
25128;DHT22;13107;51.304;6.866;2023-05-10T04:55:48;12.90;99.90
25128;DHT22;13107;51.304;6.866;2023-05-10T04:59:51;13.00;99.90
25128;DHT22;13107;51.304;6.866;2023-05-10T05:03:52;13.00;99.90
25128;DHT22;13107;51.304;6.866;2023-05-10T05:07:54;13.00;99.90
25128;DHT22;13107;51.304;6.866;2023-05-10T05:11:56;13.10;99.90
25128;DHT22;13107;51.304;6.866;2023-05-10T05:16:03;13.00;99.90
25128;DHT22;13107;51.304;6.866;2023-05-10T05:20:05;13.10;99.90
25128;DHT22;13107;51.304;6.866;2023-05-10T05:24:07;13.10;99.90
25128;DHT22;13107;51.304;6.866;2023-05-10T05:28:09;13.10;99.90
25128;DHT22;13107;51.304;6.866;2023-05-10T05:32:11;13.10;99.90
25128;DHT22;13107;51.304;6.866;2023-05-10T05:36:14;13.10;99.90
25128;DHT22;13107;51.304;6.866;2023-05-10T05:40:15;13.20;99.90
25128;DHT22;13107;51.304;6.866;2023-05-10T05:44:17;13.20;99.90
25128;DHT22;13107;51.304;6.866;2023-05-10T05:48:19;13.20;99.90
25128;DHT22;13107;51.304;6.866;2023-05-10T05:52:21;13.20;99.90
25128;DHT22;13107;51.304;6.866;2023-05-10T05:56:23;13.20;99.90
25128;DHT22;13107;51.304;6.866;2023-05-10T06:00:26;13.20;99.90
25128;DHT22;13107;51.304;6.866;2023-05-10T06:04:28;13.20;99.90
25128;DHT22;13107;51.304;6.866;2023-05-10T06:08:29;13.20;99.90
25128;DHT22;13107;51.304;6.866;2023-05-10T06:12:31;13.20;99.90
25128;DHT22;13107;51.304;6.866;2023-05-10T06:16:34;13.20;99.90
25128;DHT22;13107;51.304;6.866;2023-05-10T06:20:36;13.30;99.90
25128;DHT22;13107;51.304;6.866;2023-05-10T06:24:38;13.20;99.90
25128;DHT22;13107;51.304;6.866;2023-05-10T06:28:40;13.20;99.90
25128;DHT22;13107;51.304;6.866;2023-05-10T06:32:42;13.10;99.90
25128;DHT22;13107;51.304;6.866;2023-05-10T06:36:45;13.20;99.90
25128;DHT22;13107;51.304;6.866;2023-05-10T06:40:47;13.20;99.90
25128;DHT22;13107;51.304;6.866;2023-05-10T06:44:49;13.20;99.90
25128;DHT22;13107;51.304;6.866;2023-05-10T06:48:50;13.20;99.90
25128;DHT22;13107;51.304;6.866;2023-05-10T06:52:52;13.20;99.90
25128;DHT22;13107;51.304;6.866;2023-05-10T06:56:54;13.20;99.90
25128;DHT22;13107;51.304;6.866;2023-05-10T07:01:02;13.20;99.90
25128;DHT22;13107;51.304;6.866;2023-05-10T07:05:04;13.10;99.90
25128;DHT22;13107;51.304;6.866;2023-05-10T07:09:06;13.10;99.90
25128;DHT22;13107;51.304;6.866;2023-05-10T07:13:09;13.10;99.90
25128;DHT22;13107;51.304;6.866;2023-05-10T07:17:12;13.10;99.90
25128;DHT22;13107;51.304;6.866;2023-05-10T07:21:14;13.10;99.90
25128;DHT22;13107;51.304;6.866;2023-05-10T07:25:15;13.10;99.90
25128;DHT22;13107;51.304;6.866;2023-05-10T07:29:17;13.00;99.90
25128;DHT22;13107;51.304;6.866;2023-05-10T07:33:19;13.10;99.90
25128;DHT22;13107;51.304;6.866;2023-05-10T07:37:21;13.10;99.90
25128;DHT22;13107;51.304;6.866;2023-05-10T07:41:23;13.10;99.90
25128;DHT22;13107;51.304;6.866;2023-05-10T07:45:25;13.10;99.90
25128;DHT22;13107;51.304;6.866;2023-05-10T07:49:27;13.20;99.90
25128;DHT22;13107;51.304;6.866;2023-05-10T07:53:28;13.40;99.90
25128;DHT22;13107;51.304;6.866;2023-05-10T07:57:30;13.50;99.90
25128;DHT22;13107;51.304;6.866;2023-05-10T08:01:33;13.50;99.90
25128;DHT22;13107;51.304;6.866;2023-05-10T08:05:35;13.70;99.90
25128;DHT22;13107;51.304;6.866;2023-05-10T08:09:37;13.80;99.90
25128;DHT22;13107;51.304;6.866;2023-05-10T08:13:39;14.00;99.90
25128;DHT22;13107;51.304;6.866;2023-05-10T08:17:41;13.90;99.90
25128;DHT22;13107;51.304;6.866;2023-05-10T08:21:43;13.90;99.90
25128;DHT22;13107;51.304;6.866;2023-05-10T08:25:45;13.90;99.90
25128;DHT22;13107;51.304;6.866;2023-05-10T08:29:46;13.90;99.90
25128;DHT22;13107;51.304;6.866;2023-05-10T08:33:51;14.00;99.90
25128;DHT22;13107;51.304;6.866;2023-05-10T08:37:59;14.20;99.90
25128;DHT22;13107;51.304;6.866;2023-05-10T08:42:03;14.20;99.90
25128;DHT22;13107;51.304;6.866;2023-05-10T08:46:05;14.30;99.90
25128;DHT22;13107;51.304;6.866;2023-05-10T08:50:10;14.20;99.90
25128;DHT22;13107;51.304;6.866;2023-05-10T08:54:12;14.20;99.90
25128;DHT22;13107;51.304;6.866;2023-05-10T08:58:14;14.20;99.90
25128;DHT22;13107;51.304;6.866;2023-05-10T09:02:17;14.30;99.90
25128;DHT22;13107;51.304;6.866;2023-05-10T09:06:19;14.30;99.90
25128;DHT22;13107;51.304;6.866;2023-05-10T09:10:21;14.30;99.90
25128;DHT22;13107;51.304;6.866;2023-05-10T09:14:25;14.40;99.90
25128;DHT22;13107;51.304;6.866;2023-05-10T09:18:27;14.10;99.90
25128;DHT22;13107;51.304;6.866;2023-05-10T09:22:30;14.00;99.90
25128;DHT22;13107;51.304;6.866;2023-05-10T09:26:32;13.90;99.90
25128;DHT22;13107;51.304;6.866;2023-05-10T09:30:34;13.90;99.90
25128;DHT22;13107;51.304;6.866;2023-05-10T09:34:35;14.00;99.90
25128;DHT22;13107;51.304;6.866;2023-05-10T09:38:51;14.20;99.90
25128;DHT22;13107;51.304;6.866;2023-05-10T09:43:02;14.40;99.90
25128;DHT22;13107;51.304;6.866;2023-05-10T09:47:04;14.60;99.90
25128;DHT22;13107;51.304;6.866;2023-05-10T09:51:06;14.50;99.90
25128;DHT22;13107;51.304;6.866;2023-05-10T09:55:08;14.40;99.90
25128;DHT22;13107;51.304;6.866;2023-05-10T09:59:11;14.40;99.90
25128;DHT22;13107;51.304;6.866;2023-05-10T10:03:15;14.50;99.90
25128;DHT22;13107;51.304;6.866;2023-05-10T10:07:22;14.70;99.90
25128;DHT22;13107;51.304;6.866;2023-05-10T10:11:25;14.80;99.90
25128;DHT22;13107;51.304;6.866;2023-05-10T10:15:27;14.90;99.90
25128;DHT22;13107;51.304;6.866;2023-05-10T10:19:29;15.00;99.90
25128;DHT22;13107;51.304;6.866;2023-05-10T10:23:31;15.10;99.90
25128;DHT22;13107;51.304;6.866;2023-05-10T10:32:28;14.60;99.90
25128;DHT22;13107;51.304;6.866;2023-05-10T10:36:31;14.60;99.90
25128;DHT22;13107;51.304;6.866;2023-05-10T10:40:35;14.60;99.90
25128;DHT22;13107;51.304;6.866;2023-05-10T10:44:37;14.40;99.90
25128;DHT22;13107;51.304;6.866;2023-05-10T10:49:09;14.50;99.90
25128;DHT22;13107;51.304;6.866;2023-05-10T10:53:11;14.30;99.90
25128;DHT22;13107;51.304;6.866;2023-05-10T10:57:14;14.30;99.90
25128;DHT22;13107;51.304;6.866;2023-05-10T11:01:17;14.30;99.90
25128;DHT22;13107;51.304;6.866;2023-05-10T11:05:40;14.50;99.90
25128;DHT22;13107;51.304;6.866;2023-05-10T11:09:42;14.60;99.90
25128;DHT22;13107;51.304;6.866;2023-05-10T11:13:45;14.70;99.90
25128;DHT22;13107;51.304;6.866;2023-05-10T11:17:51;14.70;99.90
25128;DHT22;13107;51.304;6.866;2023-05-10T11:26:08;14.90;99.90
25128;DHT22;13107;51.304;6.866;2023-05-10T11:30:13;14.70;99.90
25128;DHT22;13107;51.304;6.866;2023-05-10T11:34:30;14.70;99.90
25128;DHT22;13107;51.304;6.866;2023-05-10T11:38:33;14.80;99.90
25128;DHT22;13107;51.304;6.866;2023-05-10T11:42:37;15.00;99.90
25128;DHT22;13107;51.304;6.866;2023-05-10T11:46:39;15.10;99.90
25128;DHT22;13107;51.304;6.866;2023-05-10T11:50:41;15.10;99.90
25128;DHT22;13107;51.304;6.866;2023-05-10T11:54:51;15.00;99.90
25128;DHT22;13107;51.304;6.866;2023-05-10T11:58:54;15.10;99.90
25128;DHT22;13107;51.304;6.866;2023-05-10T12:02:57;15.20;99.90
25128;DHT22;13107;51.304;6.866;2023-05-10T12:06:59;15.20;99.90
25128;DHT22;13107;51.304;6.866;2023-05-10T12:11:07;15.40;99.90
25128;DHT22;13107;51.304;6.866;2023-05-10T12:15:20;15.30;99.90
25128;DHT22;13107;51.304;6.866;2023-05-10T12:19:22;15.50;99.90
25128;DHT22;13107;51.304;6.866;2023-05-10T12:23:26;15.70;99.90
25128;DHT22;13107;51.304;6.866;2023-05-10T12:27:39;15.90;99.90
25128;DHT22;13107;51.304;6.866;2023-05-10T12:31:52;16.00;99.90
25128;DHT22;13107;51.304;6.866;2023-05-10T12:35:54;16.10;99.90
25128;DHT22;13107;51.304;6.866;2023-05-10T12:39:56;16.20;99.90
25128;DHT22;13107;51.304;6.866;2023-05-10T12:43:57;16.20;99.90
25128;DHT22;13107;51.304;6.866;2023-05-10T12:47:59;16.30;99.90
25128;DHT22;13107;51.304;6.866;2023-05-10T12:52:01;16.50;99.90
25128;DHT22;13107;51.304;6.866;2023-05-10T12:56:03;16.30;99.90
25128;DHT22;13107;51.304;6.866;2023-05-10T13:00:06;16.40;99.90
25128;DHT22;13107;51.304;6.866;2023-05-10T13:04:08;16.50;99.90
25128;DHT22;13107;51.304;6.866;2023-05-10T13:08:10;16.70;99.90
25128;DHT22;13107;51.304;6.866;2023-05-10T13:12:11;17.00;99.90
25128;DHT22;13107;51.304;6.866;2023-05-10T13:16:13;17.00;99.90
25128;DHT22;13107;51.304;6.866;2023-05-10T13:20:15;17.20;99.90
25128;DHT22;13107;51.304;6.866;2023-05-10T13:24:17;17.40;99.90
25128;DHT22;13107;51.304;6.866;2023-05-10T13:28:19;17.30;99.90
25128;DHT22;13107;51.304;6.866;2023-05-10T13:32:21;17.50;99.90
25128;DHT22;13107;51.304;6.866;2023-05-10T13:36:23;17.50;99.90
25128;DHT22;13107;51.304;6.866;2023-05-10T13:40:25;17.20;99.90
25128;DHT22;13107;51.304;6.866;2023-05-10T13:44:26;17.50;99.90
25128;DHT22;13107;51.304;6.866;2023-05-10T13:48:28;17.50;99.90
25128;DHT22;13107;51.304;6.866;2023-05-10T13:52:30;17.60;99.90
25128;DHT22;13107;51.304;6.866;2023-05-10T13:56:32;17.80;99.90
25128;DHT22;13107;51.304;6.866;2023-05-10T14:00:34;17.70;99.90
25128;DHT22;13107;51.304;6.866;2023-05-10T14:04:35;17.70;99.90
25128;DHT22;13107;51.304;6.866;2023-05-10T14:08:37;17.80;99.90
25128;DHT22;13107;51.304;6.866;2023-05-10T14:12:39;17.80;99.90
25128;DHT22;13107;51.304;6.866;2023-05-10T14:16:44;17.80;99.90
25128;DHT22;13107;51.304;6.866;2023-05-10T14:20:46;17.80;99.90
25128;DHT22;13107;51.304;6.866;2023-05-10T14:24:48;17.60;99.90
25128;DHT22;13107;51.304;6.866;2023-05-10T14:28:50;17.70;99.90
25128;DHT22;13107;51.304;6.866;2023-05-10T14:32:53;18.10;99.90
25128;DHT22;13107;51.304;6.866;2023-05-10T14:36:55;18.40;99.90
25128;DHT22;13107;51.304;6.866;2023-05-10T14:40:57;18.50;99.90
25128;DHT22;13107;51.304;6.866;2023-05-10T14:44:59;18.40;99.90
25128;DHT22;13107;51.304;6.866;2023-05-10T14:49:01;19.10;99.90
25128;DHT22;13107;51.304;6.866;2023-05-10T14:53:03;19.30;99.90
25128;DHT22;13107;51.304;6.866;2023-05-10T14:57:04;19.80;99.90
25128;DHT22;13107;51.304;6.866;2023-05-10T15:01:07;19.30;99.90
25128;DHT22;13107;51.304;6.866;2023-05-10T15:05:09;18.80;99.90
25128;DHT22;13107;51.304;6.866;2023-05-10T15:09:11;18.30;99.90
25128;DHT22;13107;51.304;6.866;2023-05-10T15:13:12;17.90;99.90
25128;DHT22;13107;51.304;6.866;2023-05-10T15:17:14;17.60;99.90
25128;DHT22;13107;51.304;6.866;2023-05-10T15:21:16;17.40;99.90
25128;DHT22;13107;51.304;6.866;2023-05-10T15:25:17;17.20;99.90
25128;DHT22;13107;51.304;6.866;2023-05-10T15:29:19;17.40;99.90
25128;DHT22;13107;51.304;6.866;2023-05-10T15:33:22;17.50;99.90
25128;DHT22;13107;51.304;6.866;2023-05-10T15:37:24;17.80;99.90
25128;DHT22;13107;51.304;6.866;2023-05-10T15:41:26;17.90;99.90
25128;DHT22;13107;51.304;6.866;2023-05-10T15:45:28;18.40;99.90
25128;DHT22;13107;51.304;6.866;2023-05-10T15:49:30;18.50;99.90
25128;DHT22;13107;51.304;6.866;2023-05-10T15:53:31;18.20;99.90
25128;DHT22;13107;51.304;6.866;2023-05-10T15:57:33;18.00;99.90
25128;DHT22;13107;51.304;6.866;2023-05-10T16:01:37;17.80;99.90
25128;DHT22;13107;51.304;6.866;2023-05-10T16:05:39;17.40;99.90
25128;DHT22;13107;51.304;6.866;2023-05-10T16:09:40;17.10;99.90
25128;DHT22;13107;51.304;6.866;2023-05-10T16:13:42;16.80;99.90
25128;DHT22;13107;51.304;6.866;2023-05-10T16:17:44;16.40;99.90
25128;DHT22;13107;51.304;6.866;2023-05-10T16:21:46;16.00;99.90
25128;DHT22;13107;51.304;6.866;2023-05-10T16:25:48;15.80;99.90
25128;DHT22;13107;51.304;6.866;2023-05-10T16:29:49;15.70;99.90
25128;DHT22;13107;51.304;6.866;2023-05-10T16:33:51;15.40;99.90
25128;DHT22;13107;51.304;6.866;2023-05-10T16:37:53;15.50;99.90
25128;DHT22;13107;51.304;6.866;2023-05-10T16:41:54;15.30;99.90
25128;DHT22;13107;51.304;6.866;2023-05-10T16:45:56;15.20;99.90
25128;DHT22;13107;51.304;6.866;2023-05-10T16:49:59;15.00;99.90
25128;DHT22;13107;51.304;6.866;2023-05-10T16:54:02;14.90;99.90
25128;DHT22;13107;51.304;6.866;2023-05-10T16:58:04;14.80;99.90
25128;DHT22;13107;51.304;6.866;2023-05-10T17:02:06;14.80;99.90
25128;DHT22;13107;51.304;6.866;2023-05-10T17:06:08;14.80;99.90
25128;DHT22;13107;51.304;6.866;2023-05-10T17:10:10;14.80;99.90
25128;DHT22;13107;51.304;6.866;2023-05-10T17:14:12;14.90;99.90
25128;DHT22;13107;51.304;6.866;2023-05-10T17:18:13;14.80;99.90
25128;DHT22;13107;51.304;6.866;2023-05-10T17:22:15;14.80;99.90
25128;DHT22;13107;51.304;6.866;2023-05-10T17:26:17;14.70;99.90
25128;DHT22;13107;51.304;6.866;2023-05-10T17:30:19;14.60;99.90
25128;DHT22;13107;51.304;6.866;2023-05-10T17:34:26;14.60;99.90
25128;DHT22;13107;51.304;6.866;2023-05-10T17:38:28;14.70;99.90
25128;DHT22;13107;51.304;6.866;2023-05-10T17:42:29;14.90;99.90
25128;DHT22;13107;51.304;6.866;2023-05-10T17:46:31;15.00;99.90
25128;DHT22;13107;51.304;6.866;2023-05-10T17:50:33;15.00;99.90
25128;DHT22;13107;51.304;6.866;2023-05-10T17:54:35;15.00;99.90
25128;DHT22;13107;51.304;6.866;2023-05-10T17:58:37;15.10;99.90
25128;DHT22;13107;51.304;6.866;2023-05-10T18:02:39;15.10;99.90
25128;DHT22;13107;51.304;6.866;2023-05-10T18:06:40;15.10;99.90
25128;DHT22;13107;51.304;6.866;2023-05-10T18:10:42;15.00;99.90
25128;DHT22;13107;51.304;6.866;2023-05-10T18:14:44;15.10;99.90
25128;DHT22;13107;51.304;6.866;2023-05-10T18:18:46;15.00;99.90
25128;DHT22;13107;51.304;6.866;2023-05-10T18:22:48;14.90;99.90
25128;DHT22;13107;51.304;6.866;2023-05-10T18:26:49;14.70;99.90
25128;DHT22;13107;51.304;6.866;2023-05-10T18:30:51;14.50;99.90
25128;DHT22;13107;51.304;6.866;2023-05-10T18:34:53;14.30;99.90
25128;DHT22;13107;51.304;6.866;2023-05-10T18:38:56;14.20;99.90
25128;DHT22;13107;51.304;6.866;2023-05-10T18:42:58;14.20;99.90
25128;DHT22;13107;51.304;6.866;2023-05-10T18:47:00;14.10;99.90
25128;DHT22;13107;51.304;6.866;2023-05-10T18:51:02;13.90;99.90
25128;DHT22;13107;51.304;6.866;2023-05-10T18:55:04;13.90;99.90
25128;DHT22;13107;51.304;6.866;2023-05-10T18:59:06;13.70;99.90
25128;DHT22;13107;51.304;6.866;2023-05-10T19:03:08;13.50;99.90
25128;DHT22;13107;51.304;6.866;2023-05-10T19:07:09;13.40;99.90
25128;DHT22;13107;51.304;6.866;2023-05-10T19:11:11;13.40;99.90
25128;DHT22;13107;51.304;6.866;2023-05-10T19:15:13;13.30;99.90
25128;DHT22;13107;51.304;6.866;2023-05-10T19:19:15;13.20;99.90
25128;DHT22;13107;51.304;6.866;2023-05-10T19:23:17;13.10;99.90
25128;DHT22;13107;51.304;6.866;2023-05-10T19:27:18;13.10;99.90
25128;DHT22;13107;51.304;6.866;2023-05-10T19:31:20;13.10;99.90
25128;DHT22;13107;51.304;6.866;2023-05-10T19:35:22;13.00;99.90
25128;DHT22;13107;51.304;6.866;2023-05-10T19:39:24;13.00;99.90
25128;DHT22;13107;51.304;6.866;2023-05-10T19:43:28;12.90;99.90
25128;DHT22;13107;51.304;6.866;2023-05-10T19:47:34;12.90;99.90
25128;DHT22;13107;51.304;6.866;2023-05-10T19:51:36;12.80;99.90
25128;DHT22;13107;51.304;6.866;2023-05-10T19:55:38;12.80;99.90
25128;DHT22;13107;51.304;6.866;2023-05-10T19:59:40;12.70;99.90
25128;DHT22;13107;51.304;6.866;2023-05-10T20:03:43;12.70;99.90
25128;DHT22;13107;51.304;6.866;2023-05-10T20:07:45;12.70;99.90
25128;DHT22;13107;51.304;6.866;2023-05-10T20:11:47;12.60;99.90
25128;DHT22;13107;51.304;6.866;2023-05-10T20:15:49;12.60;99.90
25128;DHT22;13107;51.304;6.866;2023-05-10T20:19:51;12.60;99.90
25128;DHT22;13107;51.304;6.866;2023-05-10T20:23:52;12.50;99.90
25128;DHT22;13107;51.304;6.866;2023-05-10T20:27:54;12.50;99.90
25128;DHT22;13107;51.304;6.866;2023-05-10T20:31:56;12.50;99.90
25128;DHT22;13107;51.304;6.866;2023-05-10T20:35:57;12.40;99.90
25128;DHT22;13107;51.304;6.866;2023-05-10T20:39:59;12.30;99.90
25128;DHT22;13107;51.304;6.866;2023-05-10T20:44:01;12.20;99.90
25128;DHT22;13107;51.304;6.866;2023-05-10T20:48:03;12.10;99.90
25128;DHT22;13107;51.304;6.866;2023-05-10T20:52:05;12.00;99.90
25128;DHT22;13107;51.304;6.866;2023-05-10T20:56:07;12.00;99.90
25128;DHT22;13107;51.304;6.866;2023-05-10T21:00:09;11.90;99.90
25128;DHT22;13107;51.304;6.866;2023-05-10T21:04:11;11.90;99.90
25128;DHT22;13107;51.304;6.866;2023-05-10T21:08:12;11.80;99.90
25128;DHT22;13107;51.304;6.866;2023-05-10T21:12:14;11.80;99.90
25128;DHT22;13107;51.304;6.866;2023-05-10T21:16:16;11.80;99.90
25128;DHT22;13107;51.304;6.866;2023-05-10T21:20:18;11.70;99.90
25128;DHT22;13107;51.304;6.866;2023-05-10T21:24:20;11.70;99.90
25128;DHT22;13107;51.304;6.866;2023-05-10T21:28:22;11.70;99.90
25128;DHT22;13107;51.304;6.866;2023-05-10T21:32:23;11.70;99.90
25128;DHT22;13107;51.304;6.866;2023-05-10T21:36:25;11.70;99.90
25128;DHT22;13107;51.304;6.866;2023-05-10T21:40:27;11.70;99.90
25128;DHT22;13107;51.304;6.866;2023-05-10T21:44:29;11.70;99.90
25128;DHT22;13107;51.304;6.866;2023-05-10T21:48:32;11.80;99.90
25128;DHT22;13107;51.304;6.866;2023-05-10T21:52:33;11.70;99.90
25128;DHT22;13107;51.304;6.866;2023-05-10T21:56:35;11.70;99.90
25128;DHT22;13107;51.304;6.866;2023-05-10T22:00:37;11.70;99.90
25128;DHT22;13107;51.304;6.866;2023-05-10T22:04:39;11.70;99.90
25128;DHT22;13107;51.304;6.866;2023-05-10T22:08:41;11.70;99.90
25128;DHT22;13107;51.304;6.866;2023-05-10T22:12:42;11.70;99.90
25128;DHT22;13107;51.304;6.866;2023-05-10T22:16:44;11.70;99.90
25128;DHT22;13107;51.304;6.866;2023-05-10T22:20:46;11.70;99.90
25128;DHT22;13107;51.304;6.866;2023-05-10T22:24:47;11.60;99.90
25128;DHT22;13107;51.304;6.866;2023-05-10T22:28:49;11.60;99.90
25128;DHT22;13107;51.304;6.866;2023-05-10T22:32:51;11.60;99.90
25128;DHT22;13107;51.304;6.866;2023-05-10T22:36:52;11.60;99.90
25128;DHT22;13107;51.304;6.866;2023-05-10T22:40:54;11.60;99.90
25128;DHT22;13107;51.304;6.866;2023-05-10T22:44:56;11.60;99.90
25128;DHT22;13107;51.304;6.866;2023-05-10T22:48:59;11.60;99.90
25128;DHT22;13107;51.304;6.866;2023-05-10T22:53:00;11.70;99.90
25128;DHT22;13107;51.304;6.866;2023-05-10T22:57:02;11.70;99.90
25128;DHT22;13107;51.304;6.866;2023-05-10T23:01:05;11.70;99.90
25128;DHT22;13107;51.304;6.866;2023-05-10T23:05:07;11.70;99.90
25128;DHT22;13107;51.304;6.866;2023-05-10T23:09:08;11.70;99.90
25128;DHT22;13107;51.304;6.866;2023-05-10T23:13:10;11.70;99.90
25128;DHT22;13107;51.304;6.866;2023-05-10T23:17:12;11.70;99.90
25128;DHT22;13107;51.304;6.866;2023-05-10T23:21:14;11.80;99.90
25128;DHT22;13107;51.304;6.866;2023-05-10T23:25:16;11.80;99.90
25128;DHT22;13107;51.304;6.866;2023-05-10T23:29:17;11.90;99.90
25128;DHT22;13107;51.304;6.866;2023-05-10T23:33:19;11.90;99.90
25128;DHT22;13107;51.304;6.866;2023-05-10T23:37:21;11.80;99.90
25128;DHT22;13107;51.304;6.866;2023-05-10T23:41:22;11.90;99.90
25128;DHT22;13107;51.304;6.866;2023-05-10T23:45:26;11.90;99.90
25128;DHT22;13107;51.304;6.866;2023-05-10T23:49:28;11.90;99.90
25128;DHT22;13107;51.304;6.866;2023-05-10T23:53:30;11.90;99.90
25128;DHT22;13107;51.304;6.866;2023-05-10T23:57:32;11.90;99.90
